Terminal Aerodrome Forecast
Issued by NWS Lake Charles, LA

Home | Current Version | Previous Version | Text Only | Print | Product List | Glossary On
Versions: 1 2 3 4 5 6 7 8 9 10 11 12 13 14 15 16 17 18 19
150
FTUS44 KLCH 261733
TAFLCH
TAF
KLCH 261733Z 2618/2718 VRB05KT P6SM VCTS FEW025CB BKN050
     FM270100 02008KT P6SM VCSH FEW015 BKN040=

USA.gov is the U.S. government's official web portal to all federal, state and local government web resources and services.